TJIGTIST

Guest
Details From TJIG - Fernando Luis Ribas Dominicci
To TIST - St Thomas - Cyril E King
Flight Number -
Tags Generated
Created
Modified
Stats Distance 64 nm / 119 km
Max Altitude 0 ft / 0 m
Waypoints 2
Social Downloads 0
Likes 0
Share VATSIM

Download

Looking for another format? Having issues loading an existing format? Contact us
Advertisement - Login to hide

Notes

Generated

Route

TJIG TIST

ID Type Via Altitude Latitude Longitude Leg Dist Tot Dist Heading (true) Name
O TJIG APT - 0 ft / 0 m 18.45591˚ -66.10575˚ - 0 nm - -
O TIST APT - 0 ft / 0 m 18.33687˚ -64.98343˚ 64 nm 64 nm 96° / 97° -

Altitude Profile

Advertisement - Login to hide

TJIG

Details ICAO TJIG (SIG)
Name Fernando Luis Ribas Dominicci
Region USA (Puerto Rico)
Timezone America/Puerto_Rico (UTC-4.0)
Stats Elevation 10 ft / 3 m (AMSL)
Location 18.456790° -66.098462°
Runways 1
Magnetic Variation 13.203° W

METAR

TJIG 231945Z 10015KT 10SM VCSH SCT040 SCT090 27/23 A3004 RMK VCSH SW MOV W

Decode

TAF

Not found

Departure Runways

ID Width Length Bearing (true) Bearing (mag) Surface Threshold Offset Overrun Length
09 98 ft / 30 m 5,536 ft / 1,687 m 82.76° 95.96° Asphalt 299 ft / 91 m 0 ft / 0 m
27 98 ft / 30 m 5,536 ft / 1,687 m 262.77° 275.97° Asphalt 118 ft / 36 m 0 ft / 0 m

TIST

Details ICAO TIST (STT)
Name St Thomas - Cyril E King
Region USA (U.S. Virgin Islands)
Timezone Unknown (UTC+0.0)
Stats Elevation 23 ft / 7 m (AMSL)
Location 18.337300° -64.973344°
Runways 1
Magnetic Variation 13.653° W

METAR

TIST 231953Z 13014G20KT 10SM FEW032 SCT040 BKN050 29/22 A3003

Decode

TAF

TAF TIST 231733Z 2318/2418 11015KT P6SM SCT030 FM232300 09010KT P6SM VCSH SCT030 FM241400 12012KT P6SM SCT030

Decode

Destination Runways

ID Width Length Bearing (true) Bearing (mag) Surface Threshold Offset Overrun Length
10 151 ft / 46 m 6,992 ft / 2,131 m 87.44° 101.09° Asphalt 0 ft / 0 m 200 ft / 61 m
28 151 ft / 46 m 6,992 ft / 2,131 m 267.44° 281.09° Asphalt 2,300 ft / 701 m 200 ft / 61 m

Approach Navaids

Runway Type Ident Frequency Range Bearing (true) Bearing (mag) Slope Elevation
10 Localiser ITMN 110.10 MHz 18 nm / 33 km 87.45° 101.11° - 15 ft / 5 m (AMSL)
10 Glidescope ITMN 110.10 MHz 10 nm / 19 km 87.44° 101.09° 3.00° 18 ft / 5 m (AMSL)
10 DME ITMN 110.10 MHz 18 nm / 33 km - - - 22 ft / 7 m (AMSL)